createdAt,value
2019-02-09T00:00:09.771Z,0.80
2019-02-09T00:02:39.368Z,0.77
2019-02-09T00:05:09.185Z,0.75
2019-02-09T00:07:39.030Z,0.78
2019-02-09T00:10:08.996Z,0.68
2019-02-09T00:12:38.542Z,0.66
2019-02-09T00:15:08.331Z,0.75
2019-02-09T00:17:38.006Z,0.70
2019-02-09T00:20:07.853Z,0.69
2019-02-09T00:22:37.717Z,0.72
2019-02-09T00:25:07.445Z,0.69
2019-02-09T00:27:37.149Z,0.71
2019-02-09T00:30:06.876Z,0.72
2019-02-09T00:32:36.695Z,0.80
2019-02-09T00:35:06.358Z,0.77
2019-02-09T00:37:35.958Z,0.85
2019-02-09T00:40:06.215Z,0.86
2019-02-09T00:42:35.655Z,0.76
2019-02-09T00:45:06.421Z,0.75
2019-02-09T00:47:36.134Z,0.70
2019-02-09T00:50:06.283Z,0.71
2019-02-09T00:52:35.729Z,0.76
2019-02-09T00:55:06.421Z,0.80
2019-02-09T00:57:37.090Z,0.68
2019-02-09T01:00:13.275Z,0.73
2019-02-09T01:02:42.932Z,0.72
2019-02-09T01:22:35.314Z,0.66
2019-02-09T01:25:05.469Z,0.74
2019-02-09T01:27:35.208Z,0.85
2019-02-09T01:30:06.530Z,0.81
2019-02-09T01:32:36.331Z,0.80
2019-02-09T01:35:06.954Z,0.80
2019-02-09T01:37:36.595Z,0.71
2019-02-09T01:40:07.259Z,0.73
2019-02-09T01:42:36.803Z,0.67
2019-02-09T01:45:07.428Z,0.73
2019-02-09T01:47:37.043Z,0.67
2019-02-09T01:50:08.391Z,0.70
2019-02-09T02:09:59.883Z,0.43
2019-02-09T02:12:29.572Z,0.43
2019-02-09T02:14:59.256Z,0.43
2019-02-09T02:17:28.761Z,0.42
2019-02-09T02:19:58.513Z,0.45
2019-02-09T02:22:28.209Z,0.46
2019-02-09T02:24:57.726Z,0.50
2019-02-09T02:27:27.423Z,0.44
2019-02-09T02:29:56.964Z,0.43
2019-02-09T02:32:26.837Z,0.49
2019-02-09T02:34:56.363Z,0.46
2019-02-09T02:37:26.456Z,0.45
2019-02-09T02:39:56.529Z,0.38
2019-02-09T02:42:26.017Z,0.31
2019-02-09T02:44:55.697Z,0.39
2019-02-09T02:47:26.009Z,0.40
2019-02-09T02:49:55.672Z,0.31
2019-02-09T02:52:25.243Z,0.27
2019-02-09T02:54:54.853Z,0.32
2019-02-09T02:57:24.343Z,0.30
2019-02-09T02:59:53.851Z,0.28
2019-02-09T03:02:23.471Z,0.35
2019-02-09T03:04:53.386Z,0.23
2019-02-09T03:07:23.598Z,0.28
2019-02-09T03:09:53.198Z,0.23
2019-02-09T03:12:22.740Z,0.20
2019-02-09T03:14:52.325Z,0.20
2019-02-09T03:17:22.080Z,0.15
2019-02-09T03:19:51.623Z,0.07
2019-02-09T03:22:21.343Z,0.04
2019-02-09T03:24:51.161Z,0.10
2019-02-09T03:27:21.092Z,0.07
2019-02-09T03:29:50.812Z,0.00
2019-02-09T03:32:20.397Z,0.00
2019-02-09T03:34:51.117Z,0.08
2019-02-09T03:37:20.912Z,-0.05
2019-02-09T03:39:50.445Z,-0.08
2019-02-09T03:42:20.317Z,0.05
2019-02-09T03:44:49.905Z,-0.06
2019-02-09T03:47:19.476Z,0.07
2019-02-09T03:49:49.240Z,0.10
2019-02-09T03:52:18.709Z,-0.02
2019-02-09T03:54:48.299Z,0.01
2019-02-09T04:14:39.088Z,-0.27
2019-02-09T04:17:08.868Z,-0.25
2019-02-09T04:19:38.283Z,-0.26
2019-02-09T04:22:08.107Z,-0.24
2019-02-09T04:24:37.607Z,-0.25
2019-02-09T04:27:07.277Z,-0.14
2019-02-09T04:29:37.011Z,-0.29
2019-02-09T04:32:06.587Z,-0.27
2019-02-09T04:51:57.147Z,-0.45
2019-02-09T05:11:49.348Z,-0.12
2019-02-09T05:14:19.265Z,-0.17
2019-02-09T05:16:48.990Z,-0.15
2019-02-09T05:36:41.470Z,-0.13
2019-02-09T05:39:11.157Z,-0.13
2019-02-09T05:41:40.634Z,-0.14
2019-02-09T05:44:10.324Z,-0.01
2019-02-09T05:46:39.878Z,-0.09
2019-02-09T05:49:09.591Z,-0.05
2019-02-09T05:51:39.244Z,-0.03
2019-02-09T05:54:08.695Z,0.09
2019-02-09T05:56:38.164Z,0.24
2019-02-09T05:59:07.908Z,0.26
2019-02-09T06:01:37.533Z,0.18
2019-02-09T06:04:07.146Z,0.09
2019-02-09T06:06:37.135Z,0.02
2019-02-09T06:09:08.363Z,0.10
2019-02-09T06:11:38.092Z,-0.04
2019-02-09T06:14:07.567Z,0.04
2019-02-09T06:16:37.205Z,0.09
2019-02-09T06:19:07.113Z,0.04
2019-02-09T06:21:36.831Z,0.04
2019-02-09T06:24:06.491Z,0.14
2019-02-09T06:26:36.242Z,0.12
2019-02-09T06:29:05.683Z,0.18
2019-02-09T06:31:40.632Z,0.25
2019-02-09T06:34:05.236Z,0.19
2019-02-09T06:36:34.844Z,0.30
2019-02-09T06:39:04.601Z,0.43
2019-02-09T06:41:34.431Z,0.45
2019-02-09T06:44:04.112Z,0.53
2019-02-09T06:46:33.642Z,0.53
2019-02-09T06:49:03.498Z,0.56
2019-02-09T06:51:33.215Z,0.66
2019-02-09T06:54:02.975Z,0.81
2019-02-09T06:56:32.741Z,0.84
2019-02-09T06:59:02.439Z,0.82
2019-02-09T07:01:32.095Z,1.01
2019-02-09T07:04:01.720Z,1.06
2019-02-09T07:23:54.107Z,1.08
2019-02-09T07:26:23.872Z,1.20
2019-02-09T07:28:53.734Z,1.23
2019-02-09T07:31:23.644Z,1.29
2019-02-09T07:33:53.375Z,1.32
2019-02-09T07:36:23.163Z,1.27
2019-02-09T07:56:14.419Z,1.50
2019-02-09T07:58:43.990Z,1.80
2019-02-09T08:01:13.601Z,1.77
2019-02-09T08:03:43.243Z,1.80
2019-02-09T08:06:12.709Z,1.90
2019-02-09T08:08:42.433Z,1.90
2019-02-09T08:11:12.023Z,1.98
2019-02-09T08:13:41.742Z,1.89
2019-02-09T08:16:11.478Z,2.09
2019-02-09T08:18:41.231Z,2.25
2019-02-09T08:21:10.889Z,2.15
2019-02-09T08:23:40.464Z,2.08
2019-02-09T08:26:10.253Z,2.17
2019-02-09T08:28:40.007Z,2.17
2019-02-09T08:31:09.815Z,2.34
2019-02-09T08:33:39.491Z,2.36
2019-02-09T08:53:29.852Z,2.67
2019-02-09T08:55:59.515Z,2.79
2019-02-09T08:58:30.317Z,2.28
2019-02-09T09:00:59.948Z,2.75
2019-02-09T09:03:29.813Z,2.82
2019-02-09T09:05:59.378Z,2.96
2019-02-09T09:08:29.072Z,2.98
2019-02-09T09:10:59.087Z,3.00
2019-02-09T09:30:49.061Z,3.13
2019-02-09T09:56:44.821Z,3.62
2019-02-09T09:59:14.349Z,3.64
2019-02-09T10:01:43.993Z,3.74
2019-02-09T10:04:13.372Z,3.58
2019-02-09T10:06:43.679Z,3.70
2019-02-09T10:09:13.122Z,3.42
2019-02-09T10:11:43.123Z,3.50
2019-02-09T10:14:12.498Z,3.40
2019-02-09T10:16:42.064Z,3.32
2019-02-09T10:19:11.565Z,3.25
2019-02-09T10:21:41.056Z,3.29
2019-02-09T10:41:30.606Z,4.19
2019-02-09T10:44:00.175Z,4.30
2019-02-09T10:46:29.879Z,4.35
2019-02-09T11:06:21.674Z,4.53
2019-02-09T11:08:51.405Z,4.51
2019-02-09T11:11:21.207Z,4.77
2019-02-09T11:13:50.988Z,5.20
2019-02-09T11:33:42.113Z,6.60
2019-02-09T11:36:11.294Z,6.69
2019-02-09T11:38:40.834Z,7.02
2019-02-09T11:41:11.060Z,7.23
2019-02-09T11:43:40.415Z,7.11
2019-02-09T11:46:10.207Z,7.26
2019-02-09T11:48:39.636Z,7.58
2019-02-09T11:51:09.268Z,7.83
2019-02-09T11:53:38.850Z,8.25
2019-02-09T11:56:08.449Z,8.68
2019-02-09T12:15:59.997Z,9.93
2019-02-09T12:18:29.726Z,9.93
2019-02-09T12:20:59.543Z,10.45
2019-02-09T12:23:29.183Z,10.65
2019-02-09T12:25:58.756Z,11.05
2019-02-09T12:28:28.456Z,11.21
2019-02-09T12:30:58.110Z,11.61
2019-02-09T12:33:27.722Z,12.18
2019-02-09T12:35:57.459Z,12.00
2019-02-09T12:38:27.732Z,12.13
2019-02-09T12:40:57.373Z,12.18
2019-02-09T12:43:27.083Z,11.44
2019-02-09T12:45:56.920Z,10.02
2019-02-09T12:48:26.387Z,9.58
2019-02-09T12:50:56.112Z,10.72
2019-02-09T12:53:25.858Z,11.62
2019-02-09T12:55:55.453Z,13.52
2019-02-09T12:58:25.045Z,13.67
2019-02-09T13:00:54.579Z,14.51
2019-02-09T13:03:30.983Z,14.14
2019-02-09T13:05:55.492Z,14.98
2019-02-09T13:08:25.116Z,15.17
2019-02-09T13:10:54.725Z,15.13
2019-02-09T13:13:24.227Z,13.99
2019-02-09T13:15:53.950Z,13.82
2019-02-09T13:18:23.679Z,14.64
2019-02-09T13:20:53.395Z,15.95
2019-02-09T13:23:23.065Z,16.19
2019-02-09T13:25:52.681Z,15.60
2019-02-09T13:28:22.315Z,17.24
2019-02-09T13:30:52.051Z,17.05
2019-02-09T13:33:21.567Z,17.40
2019-02-09T13:35:51.127Z,17.30
2019-02-09T13:58:35.206Z,15.81
2019-02-09T14:01:04.851Z,15.28
2019-02-09T14:03:34.292Z,16.20
2019-02-09T14:06:08.200Z,15.72
2019-02-09T14:08:33.868Z,15.30
2019-02-09T14:11:03.447Z,15.53
2019-02-09T14:13:33.178Z,15.16
2019-02-09T14:16:08.261Z,14.68
2019-02-09T14:18:32.324Z,15.22
2019-02-09T14:21:01.918Z,14.59
2019-02-09T14:23:31.487Z,14.82
2019-02-09T14:26:01.199Z,14.65
2019-02-09T14:28:30.918Z,14.33
2019-02-09T14:48:22.512Z,10.16
2019-02-09T14:50:52.248Z,10.19
2019-02-09T14:53:21.972Z,10.14
2019-02-09T14:55:51.654Z,10.29
2019-02-09T14:58:21.262Z,10.27
2019-02-09T15:00:52.447Z,9.94
2019-02-09T15:03:26.948Z,9.45
2019-02-09T15:05:52.099Z,8.50
2019-02-09T15:08:21.783Z,8.20
2019-02-09T15:10:51.408Z,7.96
2019-02-09T15:13:21.087Z,7.95
2019-02-09T15:16:02.469Z,7.68
2019-02-09T15:18:32.297Z,7.70
2019-02-09T15:21:02.559Z,7.54
2019-02-09T15:23:32.454Z,7.21
2019-02-09T15:26:02.402Z,7.17
2019-02-09T15:28:31.985Z,6.95
2019-02-09T15:31:01.720Z,6.72
2019-02-09T15:33:31.401Z,6.60
2019-02-09T15:36:01.237Z,6.63
2019-02-09T15:47:11.756Z,6.07
2019-02-09T15:49:41.119Z,6.03
2019-02-09T15:52:10.837Z,6.07
2019-02-09T15:54:40.391Z,6.02
2019-02-09T15:57:10.084Z,5.78
2019-02-09T15:59:39.848Z,5.79
2019-02-09T16:02:10.072Z,5.75
2019-02-09T16:04:40.178Z,5.42
2019-02-09T16:07:10.440Z,5.28
2019-02-09T16:09:40.214Z,5.34
2019-02-09T16:12:09.758Z,4.83
2019-02-09T16:14:39.342Z,4.43
2019-02-09T16:17:08.984Z,4.60
2019-02-09T16:19:38.662Z,4.84
2019-02-09T16:22:08.507Z,4.89
2019-02-09T16:24:38.066Z,4.41
2019-02-09T16:27:07.806Z,3.90
2019-02-09T16:29:37.603Z,3.99
2019-02-09T16:32:07.447Z,3.82
2019-02-09T16:34:37.046Z,3.81
2019-02-09T16:37:06.397Z,3.66
2019-02-09T16:39:36.017Z,3.51
2019-02-09T16:42:05.673Z,3.30
2019-02-09T16:44:35.486Z,2.89
2019-02-09T16:47:04.949Z,2.76
2019-02-09T16:49:34.579Z,2.84
2019-02-09T16:52:04.113Z,2.77
2019-02-09T16:54:33.536Z,2.68
2019-02-09T16:57:03.162Z,2.67
2019-02-09T16:59:32.873Z,2.41
2019-02-09T17:02:02.735Z,2.31
2019-02-09T17:04:33.355Z,2.28
2019-02-09T17:07:02.179Z,2.23
2019-02-09T17:09:31.755Z,2.23
2019-02-09T17:12:01.480Z,2.16
2019-02-09T17:14:31.622Z,2.14
2019-02-09T17:17:01.387Z,1.97
2019-02-09T17:19:31.130Z,1.90
2019-02-09T17:22:00.945Z,2.08
2019-02-09T17:24:30.535Z,2.19
2019-02-09T17:27:00.037Z,2.23
2019-02-09T17:29:29.703Z,1.96
2019-02-09T17:31:59.483Z,2.02
2019-02-09T17:34:29.429Z,2.20
2019-02-09T17:36:59.510Z,2.36
2019-02-09T17:39:29.283Z,2.57
2019-02-09T17:41:59.080Z,2.58
2019-02-09T17:44:28.931Z,2.55
2019-02-09T17:46:58.583Z,2.55
2019-02-09T17:49:28.044Z,2.44
2019-02-09T17:51:58.859Z,2.26
2019-02-09T17:54:28.636Z,2.27
2019-02-09T17:56:58.193Z,2.09
2019-02-09T17:59:27.829Z,2.23
2019-02-09T18:01:57.574Z,2.17
2019-02-09T18:04:27.128Z,2.10
2019-02-09T18:06:57.070Z,2.07
2019-02-09T18:09:26.732Z,1.95
2019-02-09T18:11:56.344Z,1.92
2019-02-09T18:14:26.700Z,2.01
2019-02-09T18:16:56.488Z,1.96
2019-02-09T18:19:25.902Z,1.89
2019-02-09T18:21:55.810Z,2.01
2019-02-09T18:24:26.130Z,2.24
2019-02-09T18:26:55.873Z,2.45
2019-02-09T18:29:25.685Z,2.62
2019-02-09T18:31:55.485Z,2.74
2019-02-09T18:34:25.003Z,2.74
2019-02-09T18:36:54.611Z,2.63
2019-02-09T18:39:24.107Z,2.47
2019-02-09T18:41:53.576Z,2.50
2019-02-09T18:44:23.244Z,2.54
2019-02-09T18:46:52.751Z,2.52
2019-02-09T18:49:22.369Z,2.57
2019-02-09T18:51:52.663Z,2.53
2019-02-09T18:54:22.117Z,2.48
2019-02-09T18:56:51.751Z,2.24
2019-02-09T18:59:21.525Z,2.31
2019-02-09T19:01:51.104Z,2.26
2019-02-09T19:04:20.930Z,2.24
2019-02-09T19:06:51.084Z,1.73
2019-02-09T19:09:22.316Z,1.83
2019-02-09T19:11:50.555Z,1.80
2019-02-09T19:14:20.177Z,1.83
2019-02-09T19:16:49.656Z,1.74
2019-02-09T19:19:19.417Z,1.74
2019-02-09T19:21:49.635Z,1.67
2019-02-09T19:24:19.415Z,1.52
2019-02-09T19:26:49.121Z,1.73
2019-02-09T19:29:18.636Z,1.55
2019-02-09T19:31:48.332Z,1.46
2019-02-09T19:34:18.037Z,1.44
2019-02-09T19:36:47.647Z,1.55
2019-02-09T19:39:17.180Z,1.62
2019-02-09T19:41:46.896Z,1.48
2019-02-09T19:44:16.683Z,1.64
2019-02-09T19:46:46.387Z,1.52
2019-02-09T19:49:16.409Z,1.44
2019-02-09T19:51:46.105Z,1.46
2019-02-09T19:54:15.811Z,1.40
2019-02-09T19:56:45.756Z,1.54
2019-02-09T19:59:15.467Z,1.46
2019-02-09T20:01:46.047Z,1.55
2019-02-09T20:04:15.503Z,1.36
2019-02-09T20:06:45.252Z,1.30
2019-02-09T20:09:15.099Z,1.35
2019-02-09T20:11:44.633Z,1.25
2019-02-09T20:14:14.577Z,1.09
2019-02-09T20:16:44.060Z,1.29
2019-02-09T20:19:13.688Z,1.17
2019-02-09T20:21:43.300Z,1.14
2019-02-09T20:24:12.815Z,1.03
2019-02-09T20:26:42.647Z,1.06
2019-02-09T20:29:12.525Z,0.91
2019-02-09T20:31:42.504Z,0.87
2019-02-09T20:34:12.212Z,0.95
2019-02-09T20:36:41.997Z,0.81
2019-02-09T20:39:11.678Z,0.76
2019-02-09T20:41:41.255Z,0.67
2019-02-09T20:44:10.892Z,0.77
2019-02-09T20:46:40.651Z,0.71
2019-02-09T20:49:10.197Z,0.77
2019-02-09T20:51:39.992Z,0.86
2019-02-09T20:54:09.762Z,0.87
2019-02-09T20:56:39.246Z,0.75
2019-02-09T20:59:09.579Z,0.81
2019-02-09T21:01:39.114Z,0.69
2019-02-09T21:04:08.810Z,0.58
2019-02-09T21:06:38.428Z,0.63
2019-02-09T21:09:08.844Z,0.63
2019-02-09T21:11:38.552Z,0.44
2019-02-09T21:14:07.999Z,0.24
2019-02-09T21:16:37.610Z,0.39
2019-02-09T21:19:07.392Z,0.36
2019-02-09T21:21:37.144Z,0.17
2019-02-09T21:24:07.396Z,0.14
2019-02-09T21:26:37.180Z,-0.01
2019-02-09T21:29:06.944Z,-0.25
2019-02-09T21:31:36.591Z,0.02
2019-02-09T21:34:06.272Z,0.21
2019-02-09T21:36:35.737Z,0.22
2019-02-09T21:39:09.142Z,0.41
2019-02-09T21:41:38.625Z,0.31
2019-02-09T21:44:08.396Z,0.23
2019-02-09T21:46:38.367Z,0.31
2019-02-09T21:49:08.161Z,0.32
2019-02-09T21:51:37.854Z,0.28
2019-02-09T21:54:07.328Z,0.18
2019-02-09T21:56:36.987Z,0.19
2019-02-09T21:59:06.809Z,0.27
2019-02-09T22:01:36.751Z,0.30
2019-02-09T22:04:06.464Z,0.37
2019-02-09T22:06:36.065Z,0.25
2019-02-09T22:09:07.298Z,0.19
2019-02-09T22:11:36.881Z,0.14
2019-02-09T22:14:06.726Z,0.11
2019-02-09T22:16:36.952Z,0.14
2019-02-09T22:19:05.882Z,0.20
2019-02-09T22:21:35.589Z,0.13
2019-02-09T22:24:05.317Z,0.13
2019-02-09T22:26:35.144Z,0.06
2019-02-09T22:29:04.804Z,0.07
2019-02-09T22:31:34.395Z,0.13
2019-02-09T22:34:04.165Z,0.08
2019-02-09T22:36:37.236Z,0.05
2019-02-09T22:39:03.720Z,0.07
2019-02-09T22:41:33.439Z,0.11
2019-02-09T22:44:02.917Z,0.06
2019-02-09T22:46:32.752Z,0.02
2019-02-09T22:49:02.124Z,-0.15
2019-02-09T22:51:32.355Z,-0.17
2019-02-09T22:54:02.003Z,-0.22
2019-02-09T22:56:31.691Z,-0.10
2019-02-09T22:59:01.438Z,-0.04
2019-02-09T23:01:40.050Z,-0.07
2019-02-09T23:04:24.902Z,-0.12
2019-02-09T23:07:00.139Z,-0.04
2019-02-09T23:09:31.462Z,-0.12
2019-02-09T23:12:01.031Z,-0.10
2019-02-09T23:14:30.812Z,-0.13
2019-02-09T23:17:00.515Z,-0.17
2019-02-09T23:19:30.080Z,-0.01
2019-02-09T23:21:59.492Z,-0.11
2019-02-09T23:24:29.114Z,-0.44
2019-02-09T23:26:58.791Z,-0.73
2019-02-09T23:29:28.529Z,-0.41
2019-02-09T23:31:59.015Z,-0.39
2019-02-09T23:34:28.820Z,-0.50
2019-02-09T23:36:58.592Z,-0.73
2019-02-09T23:39:28.035Z,-0.70
2019-02-09T23:41:57.583Z,-0.69
2019-02-09T23:44:27.313Z,-0.65
2019-02-09T23:46:57.033Z,-0.59
2019-02-09T23:49:26.861Z,-0.46
2019-02-09T23:51:56.427Z,-0.48
2019-02-09T23:54:26.080Z,-0.59
2019-02-09T23:56:55.625Z,-0.66
2019-02-09T23:59:25.179Z,-0.65
